シドニー の空港の天気 - METARとTAF

シドニー国際空港 ( YSSY / SYD ) - オーストラリア ニューサウスウェールズ州、Mascot
飛行場実況気象(Metar)
観測時間04/22 01:00 AEST (04/21 15:00 UTC)
風向・風速北北西 2m/s
視程10km以上
天気現象
なし
気温21℃
湿度78%
気圧1022hPa
METARYSSY 211500Z 33004KT CAVOK 21/17 Q1022
過去の天気等 Google飛行場航空写真 Wunderground天気予報

過去48時間のMETAR

飛行場予報(TAF)
発表時間: 4/21 21:07 AEST (4/21 11:07 UTC)
予報対象時間: 21日22時 AEST ~ 23日4時 AEST
風向・風速北北西 3m/s
視程10km以上
なし
22日11時 AEST から
風向・風速北東 7m/s
視程10km以上
なし
22日19時 AEST から
風向・風速北北東 4m/s
視程10km以上
少しの雲 雲底高度 760m
23日2時 AEST から
風向・風速南南西 5m/s
視程10km以上
天気現象弱いしゅう雨
全天の4割程度の雲 雲底高度 760m
TAF YSSY 211107Z 2112/2218 34005KT CAVOK
FM220100 05014KT CAVOK
FM220900 03008KT 9999 FEW025
FM221600 20010KT 9999 -SHRA SCT025